createdAt,value
2019-02-22T00:00:45.995Z,97.16
2019-02-22T00:01:45.931Z,97.16
2019-02-22T00:02:45.903Z,97.82
2019-02-22T00:03:45.872Z,97.47
2019-02-22T00:04:45.843Z,97.57
2019-02-22T00:05:45.829Z,97.47
2019-02-22T00:06:46.409Z,97.41
2019-02-22T00:07:45.752Z,97.27
2019-02-22T00:08:45.713Z,97.62
2019-02-22T00:09:49.308Z,96.90
2019-02-22T00:10:45.949Z,97.27
2019-02-22T00:11:45.619Z,97.78
2019-02-22T00:12:45.591Z,96.95
2019-02-22T00:13:45.556Z,96.65
2019-02-22T00:14:46.412Z,96.65
2019-02-22T00:15:45.949Z,96.44
2019-02-22T00:16:45.461Z,96.44
2019-02-22T00:17:45.427Z,96.65
2019-02-22T00:18:45.401Z,96.55
2019-02-22T00:19:45.377Z,96.08
2019-02-22T00:20:45.363Z,96.03
2019-02-22T00:21:45.303Z,95.83
2019-02-22T00:22:45.294Z,95.77
2019-02-22T00:23:45.914Z,95.83
2019-02-22T00:24:45.208Z,95.46
2019-02-22T00:25:45.201Z,95.31
2019-02-22T00:26:45.914Z,95.83
2019-02-22T00:27:45.127Z,95.01
2019-02-22T00:28:45.921Z,95.31
2019-02-22T00:29:45.053Z,95.72
2019-02-22T00:30:45.050Z,95.52
2019-02-22T00:31:44.992Z,95.77
2019-02-22T00:32:44.962Z,95.56
2019-02-22T00:33:44.940Z,95.46
2019-02-22T00:34:45.441Z,95.42
2019-02-22T00:35:44.920Z,95.46
2019-02-22T00:36:44.954Z,94.84
2019-02-22T00:37:51.418Z,94.64
2019-02-22T00:38:44.772Z,94.84
2019-02-22T00:39:44.745Z,94.33
2019-02-22T00:40:46.835Z,94.23
2019-02-22T00:41:44.698Z,93.61
2019-02-22T00:42:44.644Z,94.02
2019-02-22T00:43:44.618Z,93.51
2019-02-22T00:44:44.586Z,93.51
2019-02-22T00:45:44.556Z,93.57
2019-02-22T00:46:44.543Z,93.61
2019-02-22T00:47:44.491Z,93.61
2019-02-22T00:48:44.466Z,93.30
2019-02-22T00:49:44.431Z,92.89
2019-02-22T00:50:44.495Z,92.85
2019-02-22T00:51:45.324Z,92.48
2019-02-22T00:52:44.333Z,92.48
2019-02-22T00:53:44.303Z,92.48
2019-02-22T00:54:44.298Z,92.89
2019-02-22T00:55:44.240Z,93.40
2019-02-22T00:56:44.231Z,93.46
2019-02-22T00:57:44.180Z,93.57
2019-02-22T00:58:44.918Z,92.79
2019-02-22T00:59:44.115Z,92.69
2019-02-22T01:00:44.078Z,93.46
2019-02-22T01:01:44.071Z,93.40
2019-02-22T01:02:44.015Z,93.30
2019-02-22T01:03:46.920Z,93.51
2019-02-22T01:04:43.950Z,93.10
2019-02-22T01:05:43.919Z,93.20
2019-02-22T01:06:43.915Z,93.86
2019-02-22T01:07:43.860Z,94.17
2019-02-22T01:08:44.421Z,94.12
2019-02-22T01:09:43.795Z,94.17
2019-02-22T01:10:44.425Z,94.37
2019-02-22T01:11:43.765Z,94.58
2019-02-22T01:12:43.703Z,94.58
2019-02-22T01:13:44.427Z,95.30
2019-02-22T01:14:44.420Z,95.30
2019-02-22T01:15:43.613Z,95.09
2019-02-22T01:16:43.606Z,95.61
2019-02-22T01:17:43.553Z,95.61
2019-02-22T01:18:43.515Z,95.61
2019-02-22T01:19:44.422Z,95.71
2019-02-22T01:20:53.766Z,95.30
2019-02-22T01:21:43.453Z,95.55
2019-02-22T01:22:43.383Z,96.37
2019-02-22T01:23:43.368Z,95.96
2019-02-22T01:24:43.884Z,96.12
2019-02-22T01:25:43.295Z,95.96
2019-02-22T01:26:43.280Z,96.99
2019-02-22T01:27:43.237Z,96.02
2019-02-22T01:28:43.922Z,96.06
2019-02-22T01:29:43.162Z,96.06
2019-02-22T01:30:43.140Z,96.58
2019-02-22T01:31:43.123Z,96.99
2019-02-22T01:32:43.942Z,96.68
2019-02-22T01:33:43.039Z,96.27
2019-02-22T01:34:43.003Z,96.33
2019-02-22T01:35:43.926Z,96.99
2019-02-22T01:36:42.968Z,96.58
2019-02-22T01:37:42.908Z,96.89
2019-02-22T01:38:43.425Z,96.99
2019-02-22T01:39:43.430Z,96.47
2019-02-22T01:40:44.168Z,96.47
2019-02-22T01:41:42.805Z,96.47
2019-02-22T01:42:43.426Z,96.78
2019-02-22T01:43:43.331Z,96.78
2019-02-22T01:44:43.426Z,96.58
2019-02-22T01:45:42.654Z,96.58
2019-02-22T01:46:42.623Z,96.68
2019-02-22T01:47:42.966Z,96.68
2019-02-22T01:48:42.557Z,96.78
2019-02-22T01:49:42.568Z,96.68
2019-02-22T01:50:42.502Z,96.58
2019-02-22T01:51:43.554Z,96.31
2019-02-22T01:52:42.965Z,96.06
2019-02-22T01:53:42.400Z,95.96
2019-02-22T01:54:44.929Z,95.90
2019-02-22T01:55:42.345Z,96.27
2019-02-22T01:56:42.927Z,96.17
2019-02-22T01:57:42.334Z,95.75
2019-02-22T01:58:48.653Z,96.06
2019-02-22T01:59:42.213Z,95.86
2019-02-22T02:00:42.180Z,95.96
2019-02-22T02:01:42.148Z,95.96
2019-02-22T02:02:42.139Z,95.45
2019-02-22T02:03:42.083Z,95.45
2019-02-22T02:04:42.932Z,95.45
2019-02-22T02:05:42.020Z,95.55
2019-02-22T02:06:42.931Z,95.55
2019-02-22T02:07:41.999Z,95.65
2019-02-22T02:08:41.927Z,95.45
2019-02-22T02:09:41.897Z,95.96
2019-02-22T02:10:41.864Z,96.17
2019-02-22T02:11:41.829Z,96.17
2019-02-22T02:12:41.825Z,95.96
2019-02-22T02:13:41.771Z,96.78
2019-02-22T02:14:41.736Z,96.47
2019-02-22T02:15:42.434Z,96.93
2019-02-22T02:16:41.675Z,97.14
2019-02-22T02:17:41.968Z,97.34
2019-02-22T02:18:41.607Z,97.65
2019-02-22T02:19:41.663Z,97.65
2019-02-22T02:20:41.569Z,97.75
2019-02-22T02:21:41.513Z,97.44
2019-02-22T02:22:41.503Z,98.06
2019-02-22T02:23:41.449Z,97.96
2019-02-22T02:24:41.989Z,97.75
2019-02-22T02:25:41.934Z,97.96
2019-02-22T02:26:41.353Z,97.86
2019-02-22T02:27:41.343Z,98.06
2019-02-22T02:28:41.291Z,98.11
2019-02-22T02:29:41.257Z,97.96
2019-02-22T02:30:41.242Z,97.90
2019-02-22T02:31:41.931Z,97.75
2019-02-22T02:32:41.969Z,97.96
2019-02-22T02:33:41.135Z,98.06
2019-02-22T02:34:41.095Z,97.96
2019-02-22T02:35:41.068Z,98.06
2019-02-22T02:36:41.040Z,98.16
2019-02-22T02:37:41.004Z,98.16
2019-02-22T02:38:41.003Z,97.96
2019-02-22T02:39:40.943Z,98.06
2019-02-22T02:40:41.433Z,97.96
2019-02-22T02:41:40.914Z,97.96
2019-02-22T02:42:40.845Z,97.55
2019-02-22T02:43:40.887Z,97.65
2019-02-22T02:44:40.785Z,97.75
2019-02-22T02:45:41.839Z,97.34
2019-02-22T02:46:40.713Z,97.75
2019-02-22T02:47:45.340Z,97.65
2019-02-22T02:48:40.671Z,97.96
2019-02-22T02:49:40.622Z,97.24
2019-02-22T02:50:40.587Z,97.14
2019-02-22T02:51:40.591Z,97.65
2019-02-22T02:52:40.527Z,97.24
2019-02-22T02:53:40.537Z,97.34
2019-02-22T02:54:40.476Z,97.14
2019-02-22T02:55:40.467Z,97.34
2019-02-22T02:56:40.395Z,97.34
2019-02-22T02:57:40.366Z,97.34
2019-02-22T02:58:40.359Z,97.03
2019-02-22T02:59:43.350Z,97.39
2019-02-22T03:00:40.285Z,97.14
2019-02-22T03:01:40.243Z,97.14
2019-02-22T03:02:40.201Z,97.24
2019-02-22T03:03:40.470Z,97.14
2019-02-22T03:04:40.156Z,97.14
2019-02-22T03:05:40.937Z,97.14
2019-02-22T03:06:40.939Z,97.34
2019-02-22T03:07:40.044Z,97.03
2019-02-22T03:08:40.035Z,97.34
2019-02-22T03:09:39.986Z,96.77
2019-02-22T03:10:40.079Z,97.14
2019-02-22T03:11:39.921Z,97.34
2019-02-22T03:12:39.885Z,96.72
2019-02-22T03:13:40.161Z,96.72
2019-02-22T03:14:39.827Z,96.83
2019-02-22T03:15:39.793Z,96.72
2019-02-22T03:16:39.759Z,96.00
2019-02-22T03:17:39.729Z,96.00
2019-02-22T03:18:39.970Z,96.00
2019-02-22T03:19:39.661Z,96.21
2019-02-22T03:20:39.634Z,96.21
2019-02-22T03:21:40.452Z,96.21
2019-02-22T03:22:39.571Z,96.11
2019-02-22T03:23:39.569Z,95.90
2019-02-22T03:24:40.438Z,95.49
2019-02-22T03:25:40.445Z,95.70
2019-02-22T03:26:39.939Z,95.59
2019-02-22T03:27:39.412Z,95.49
2019-02-22T03:28:39.421Z,95.49
2019-02-22T03:29:39.342Z,95.49
2019-02-22T03:30:39.943Z,95.70
2019-02-22T03:31:39.942Z,95.80
2019-02-22T03:32:39.945Z,95.28
2019-02-22T03:33:39.432Z,95.70
2019-02-22T03:34:39.184Z,95.59
2019-02-22T03:35:39.943Z,95.12
2019-02-22T03:36:39.941Z,95.49
2019-02-22T03:37:39.950Z,95.49
2019-02-22T03:38:39.083Z,94.67
2019-02-22T03:39:39.033Z,94.77
2019-02-22T03:40:38.994Z,94.46
2019-02-22T03:41:38.961Z,94.56
2019-02-22T03:42:38.937Z,94.56
2019-02-22T03:43:38.944Z,94.46
2019-02-22T03:44:38.873Z,94.46
2019-02-22T03:45:38.842Z,94.15
2019-02-22T03:46:38.807Z,94.56
2019-02-22T03:47:39.441Z,94.26
2019-02-22T03:48:39.449Z,94.67
2019-02-22T03:49:38.741Z,94.56
2019-02-22T03:50:39.485Z,94.51
2019-02-22T03:51:39.446Z,94.26
2019-02-22T03:52:38.615Z,94.46
2019-02-22T03:53:38.584Z,94.36
2019-02-22T03:54:38.576Z,94.26
2019-02-22T03:55:38.523Z,93.88
2019-02-22T03:56:38.491Z,93.84
2019-02-22T03:57:38.455Z,93.84
2019-02-22T03:58:38.456Z,93.84
2019-02-22T03:59:38.416Z,93.64
2019-02-22T04:00:38.363Z,93.84
2019-02-22T04:01:38.329Z,93.79
2019-02-22T04:02:38.302Z,93.95
2019-02-22T04:03:40.954Z,93.58
2019-02-22T04:04:38.255Z,93.84
2019-02-22T04:05:38.205Z,93.74
2019-02-22T04:06:38.179Z,93.54
2019-02-22T04:07:38.955Z,93.12
2019-02-22T04:08:38.853Z,93.12
2019-02-22T04:09:38.120Z,93.23
2019-02-22T04:10:38.949Z,93.33
2019-02-22T04:11:45.711Z,93.43
2019-02-22T04:12:38.946Z,93.33
2019-02-22T04:13:37.947Z,93.88
2019-02-22T04:14:37.940Z,93.84
2019-02-22T04:15:37.882Z,93.95
2019-02-22T04:16:37.854Z,93.54
2019-02-22T04:17:38.406Z,93.54
2019-02-22T04:18:37.796Z,93.48
2019-02-22T04:19:37.797Z,93.88
2019-02-22T04:20:37.727Z,93.27
2019-02-22T04:21:37.694Z,92.92
2019-02-22T04:22:37.676Z,92.65
2019-02-22T04:23:37.649Z,92.34
2019-02-22T04:24:37.625Z,91.93
2019-02-22T04:25:37.579Z,91.83
2019-02-22T04:26:37.544Z,91.83
2019-02-22T04:27:37.505Z,91.72
2019-02-22T04:28:37.471Z,91.87
2019-02-22T04:29:37.692Z,90.64
2019-02-22T04:30:38.065Z,90.33
2019-02-22T04:31:37.462Z,90.49
2019-02-22T04:32:37.348Z,90.12
2019-02-22T04:33:37.316Z,90.12
2019-02-22T04:34:37.481Z,89.81
2019-02-22T04:35:37.268Z,89.61
2019-02-22T04:36:37.951Z,89.29
2019-02-22T04:37:37.184Z,89.23
2019-02-22T04:38:37.159Z,88.47
2019-02-22T04:39:37.145Z,87.69
2019-02-22T04:40:37.125Z,87.75
2019-02-22T04:41:37.067Z,87.27
2019-02-22T04:42:37.949Z,86.45
2019-02-22T04:43:37.857Z,87.69
2019-02-22T04:44:38.504Z,86.97
2019-02-22T04:45:37.451Z,87.90
2019-02-22T04:46:36.908Z,87.59
2019-02-22T04:47:36.950Z,87.73
2019-02-22T04:48:39.453Z,86.90
2019-02-22T04:49:36.841Z,87.21
2019-02-22T04:50:36.795Z,87.21
2019-02-22T04:51:36.751Z,87.73
2019-02-22T04:52:36.769Z,88.18
2019-02-22T04:53:36.669Z,87.35
2019-02-22T04:54:37.458Z,87.46
2019-02-22T04:55:36.636Z,87.26
2019-02-22T04:56:37.358Z,87.19
2019-02-22T04:57:37.451Z,87.08
2019-02-22T04:58:36.510Z,87.19
2019-02-22T04:59:37.367Z,86.92
2019-02-22T05:00:36.476Z,86.92
2019-02-22T05:01:36.985Z,86.71
2019-02-22T05:02:36.377Z,87.89
2019-02-22T05:03:36.342Z,87.58
2019-02-22T05:04:36.310Z,87.37
2019-02-22T05:05:36.305Z,87.48
2019-02-22T05:06:36.264Z,87.58
2019-02-22T05:07:36.215Z,87.89
2019-02-22T05:08:36.181Z,88.20
2019-02-22T05:09:36.155Z,88.31
2019-02-22T05:10:36.492Z,88.82
2019-02-22T05:11:36.979Z,88.31
2019-02-22T05:12:36.054Z,88.20
2019-02-22T05:13:36.019Z,87.99
2019-02-22T05:14:36.957Z,87.83
2019-02-22T05:15:37.026Z,87.48
2019-02-22T05:16:35.968Z,87.31
2019-02-22T05:17:35.921Z,87.10
2019-02-22T05:18:36.456Z,87.93
2019-02-22T05:19:35.818Z,87.66
2019-02-22T05:20:35.810Z,87.66
2019-02-22T05:21:35.752Z,87.66
2019-02-22T05:22:35.721Z,88.07
2019-02-22T05:23:35.751Z,87.46
2019-02-22T05:24:36.456Z,87.81
2019-02-22T05:25:35.986Z,88.22
2019-02-22T05:26:35.587Z,87.70
2019-02-22T05:27:36.455Z,88.01
2019-02-22T05:28:36.464Z,88.22
2019-02-22T05:29:36.459Z,88.67
2019-02-22T05:30:36.556Z,88.78
2019-02-22T05:31:35.959Z,88.46
2019-02-22T05:32:35.955Z,89.29
2019-02-22T05:33:35.963Z,89.61
2019-02-22T05:34:35.366Z,90.12
2019-02-22T05:35:35.582Z,89.96
2019-02-22T05:36:35.272Z,90.16
2019-02-22T05:37:35.225Z,90.16
2019-02-22T05:38:35.209Z,90.06
2019-02-22T05:39:37.962Z,91.30
2019-02-22T05:40:35.493Z,90.37
2019-02-22T05:41:35.092Z,90.26
2019-02-22T05:42:35.053Z,90.10
2019-02-22T05:43:35.026Z,90.10
2019-02-22T05:44:34.990Z,89.89
2019-02-22T05:47:06.516Z,90.35
2019-02-22T05:48:06.461Z,89.89
2019-02-22T05:49:06.434Z,90.25
2019-02-22T05:50:06.390Z,90.97
2019-02-22T05:51:06.670Z,90.97
2019-02-22T05:52:06.557Z,91.49
2019-02-22T05:53:06.297Z,91.18
2019-02-22T05:54:06.255Z,91.28
2019-02-22T05:55:06.225Z,90.87
2019-02-22T05:56:06.211Z,90.50
2019-02-22T05:57:06.160Z,90.60
2019-02-22T05:58:06.147Z,91.22
2019-02-22T05:59:06.097Z,91.12
2019-02-22T06:00:06.055Z,91.22
2019-02-22T06:01:07.009Z,91.43
2019-02-22T06:02:06.037Z,91.78
2019-02-22T06:03:05.956Z,91.58
2019-02-22T06:04:05.919Z,91.47
2019-02-22T06:05:05.887Z,92.30
2019-02-22T06:06:05.871Z,91.58
2019-02-22T06:07:05.824Z,91.83
2019-02-22T06:08:08.721Z,91.52
2019-02-22T06:09:05.746Z,91.72
2019-02-22T06:10:05.720Z,92.49
2019-02-22T06:11:05.706Z,92.55
2019-02-22T06:12:05.680Z,92.07
2019-02-22T06:13:06.143Z,92.49
2019-02-22T06:14:05.582Z,91.86
2019-02-22T06:15:05.556Z,91.86
2019-02-22T06:16:05.535Z,92.28
2019-02-22T06:17:14.285Z,92.35
2019-02-22T06:18:05.442Z,92.35
2019-02-22T06:19:05.411Z,92.76
2019-02-22T06:20:05.379Z,92.35
2019-02-22T06:21:05.680Z,91.41
2019-02-22T06:22:05.308Z,91.45
2019-02-22T06:23:06.147Z,91.55
2019-02-22T06:24:05.248Z,91.45
2019-02-22T06:25:05.208Z,91.45
2019-02-22T06:26:05.252Z,91.86
2019-02-22T06:27:05.137Z,91.76
2019-02-22T06:28:05.100Z,91.76
2019-02-22T06:29:05.068Z,91.55
2019-02-22T06:30:05.043Z,91.66
2019-02-22T06:31:05.659Z,91.14
2019-02-22T06:32:04.991Z,91.76
2019-02-22T06:33:05.642Z,91.35
2019-02-22T06:34:04.894Z,91.24
2019-02-22T06:35:05.648Z,91.66
2019-02-22T06:36:04.829Z,91.80
2019-02-22T06:37:05.200Z,91.55
2019-02-22T06:38:04.853Z,92.01
2019-02-22T06:39:05.644Z,91.39
2019-02-22T06:40:04.692Z,91.76
2019-02-22T06:41:04.657Z,91.60
2019-02-22T06:42:04.647Z,91.66
2019-02-22T06:43:04.650Z,92.74
2019-02-22T06:44:04.587Z,92.07
2019-02-22T06:45:04.524Z,91.70
2019-02-22T06:46:04.484Z,92.22
2019-02-22T06:47:04.477Z,92.07
2019-02-22T06:48:04.413Z,92.90
2019-02-22T06:49:04.382Z,92.80
2019-02-22T06:50:04.352Z,92.49
2019-02-22T06:51:04.312Z,91.45
2019-02-22T06:52:04.300Z,91.55
2019-02-22T06:53:04.247Z,91.86
2019-02-22T06:54:04.212Z,91.55
2019-02-22T06:55:04.177Z,92.18
2019-02-22T06:56:04.138Z,91.76
2019-02-22T06:57:04.128Z,91.14
2019-02-22T06:58:04.071Z,91.55
2019-02-22T06:59:04.038Z,91.24
2019-02-22T07:00:04.010Z,91.45
2019-02-22T07:01:04.004Z,91.24
2019-02-22T07:02:03.973Z,91.76
2019-02-22T07:03:03.905Z,91.14
2019-02-22T07:04:03.869Z,90.83
2019-02-22T07:05:03.837Z,89.69
2019-02-22T07:06:05.647Z,88.85
2019-02-22T07:07:03.794Z,89.17
2019-02-22T07:08:03.730Z,89.58
2019-02-22T07:09:03.714Z,88.92
2019-02-22T07:10:03.670Z,88.51
2019-02-22T07:11:03.626Z,88.44
2019-02-22T07:12:03.621Z,88.54
2019-02-22T07:13:03.561Z,88.34
2019-02-22T07:14:03.527Z,88.30
2019-02-22T07:15:03.495Z,88.23
2019-02-22T07:16:03.456Z,87.92
2019-02-22T07:17:03.424Z,88.54
2019-02-22T07:18:03.421Z,88.54
2019-02-22T07:19:03.417Z,88.02
2019-02-22T07:20:03.323Z,87.92
2019-02-22T07:21:03.293Z,88.75
2019-02-22T07:22:03.257Z,88.75
2019-02-22T07:23:05.052Z,88.23
2019-02-22T07:24:03.193Z,87.40
2019-02-22T07:25:03.152Z,87.30
2019-02-22T07:26:03.119Z,87.51
2019-02-22T07:27:03.083Z,87.55
2019-02-22T07:28:03.115Z,87.40
2019-02-22T07:29:03.022Z,87.61
2019-02-22T07:30:02.981Z,87.86
2019-02-22T07:31:02.948Z,88.38
2019-02-22T07:32:06.108Z,87.96
2019-02-22T07:33:02.905Z,87.76
2019-02-22T07:34:02.849Z,88.17
2019-02-22T07:35:02.812Z,87.55
2019-02-22T07:36:03.647Z,87.76
2019-02-22T07:37:02.759Z,87.96
2019-02-22T07:38:02.777Z,87.71
2019-02-22T07:39:03.650Z,88.17
2019-02-22T07:40:02.640Z,87.61
2019-02-22T07:41:02.626Z,87.82
2019-02-22T07:42:02.572Z,87.71
2019-02-22T07:43:08.107Z,87.51
2019-02-22T07:44:03.055Z,86.93
2019-02-22T07:45:02.468Z,87.30
2019-02-22T07:46:02.434Z,86.78
2019-02-22T07:47:02.397Z,86.47
2019-02-22T07:48:02.397Z,85.53
2019-02-22T07:49:02.333Z,84.60
2019-02-22T07:50:02.301Z,84.29
2019-02-22T07:51:02.286Z,83.98
2019-02-22T07:52:02.233Z,84.39
2019-02-22T07:53:02.218Z,83.77
2019-02-22T07:54:02.163Z,83.60
2019-02-22T07:55:02.127Z,84.19
2019-02-22T07:56:02.094Z,82.98
2019-02-22T07:57:02.121Z,83.81
2019-02-22T07:58:02.050Z,83.18
2019-02-22T07:59:03.187Z,83.81
2019-02-22T08:00:01.969Z,83.60
2019-02-22T08:01:01.943Z,84.16
2019-02-22T08:02:01.889Z,83.91
2019-02-22T08:03:01.878Z,84.33
2019-02-22T08:04:01.826Z,82.67
2019-02-22T08:05:01.794Z,82.46
2019-02-22T08:06:01.751Z,82.25
2019-02-22T08:07:01.719Z,82.04
2019-02-22T08:08:01.709Z,81.52
2019-02-22T08:09:01.654Z,79.13
2019-02-22T08:10:01.681Z,77.33
2019-02-22T08:11:01.581Z,78.58
2019-02-22T08:12:01.549Z,77.12
2019-02-22T08:13:01.593Z,77.12
2019-02-22T08:14:01.479Z,76.61
2019-02-22T08:15:02.149Z,76.09
2019-02-22T08:16:01.411Z,76.29
2019-02-22T08:17:01.382Z,76.50
2019-02-22T08:18:01.366Z,76.02
2019-02-22T08:19:02.005Z,77.33
2019-02-22T08:20:01.304Z,77.33
2019-02-22T08:21:01.250Z,76.50
2019-02-22T08:22:03.455Z,77.33
2019-02-22T08:23:01.186Z,76.71
2019-02-22T08:24:01.175Z,77.02
2019-02-22T08:25:01.126Z,77.54
2019-02-22T08:26:01.081Z,77.75
2019-02-22T08:27:01.047Z,77.54
2019-02-22T08:28:01.006Z,77.75
2019-02-22T08:29:01.004Z,78.27
2019-02-22T08:30:00.939Z,77.68
2019-02-22T08:31:00.916Z,78.30
2019-02-22T08:32:01.667Z,78.92
2019-02-22T08:33:00.837Z,78.82
2019-02-22T08:34:00.828Z,78.41
2019-02-22T08:35:00.771Z,78.92
2019-02-22T08:36:01.673Z,78.27
2019-02-22T08:37:00.751Z,77.61
2019-02-22T08:38:00.672Z,76.33
2019-02-22T08:39:00.686Z,73.84
2019-02-22T08:40:02.263Z,71.35
2019-02-22T08:41:00.573Z,71.84
2019-02-22T08:42:00.539Z,70.76
2019-02-22T08:43:00.506Z,71.28
2019-02-22T08:44:00.493Z,70.04
2019-02-22T08:45:00.473Z,69.32
2019-02-22T08:46:01.155Z,68.90
2019-02-22T08:47:00.368Z,68.70
2019-02-22T08:48:00.340Z,67.73
2019-02-22T08:49:00.324Z,67.17
2019-02-22T08:50:00.348Z,68.38
2019-02-22T08:51:00.234Z,68.07
2019-02-22T08:52:00.206Z,67.86
2019-02-22T08:53:00.169Z,67.24
2019-02-22T08:54:00.165Z,68.49
2019-02-22T08:55:00.660Z,67.66
2019-02-22T08:56:00.069Z,67.35
2019-02-22T08:57:00.038Z,67.35
2019-02-22T08:58:00.005Z,67.79
2019-02-22T08:58:59.995Z,67.30
2019-02-22T08:59:59.960Z,67.55
2019-02-22T09:01:00.656Z,69.03
2019-02-22T09:01:59.876Z,68.82
2019-02-22T09:02:59.837Z,69.62
2019-02-22T09:03:59.827Z,69.00
2019-02-22T09:04:59.778Z,68.48
2019-02-22T09:06:00.667Z,69.10
2019-02-22T09:06:59.704Z,69.42
2019-02-22T09:08:00.656Z,69.83
2019-02-22T09:08:59.666Z,70.56
2019-02-22T09:09:59.603Z,70.28
2019-02-22T09:11:00.816Z,70.07
2019-02-22T09:11:59.538Z,70.38
2019-02-22T09:12:59.505Z,71.34
2019-02-22T09:14:00.157Z,71.48
2019-02-22T09:14:59.460Z,71.80
2019-02-22T09:15:59.406Z,72.34
2019-02-22T09:16:59.372Z,72.66
2019-02-22T09:17:59.334Z,72.52
2019-02-22T09:18:59.303Z,71.90
2019-02-22T09:19:59.294Z,72.21
2019-02-22T09:20:59.234Z,72.42
2019-02-22T09:21:59.201Z,71.90
2019-02-22T09:23:00.159Z,71.45
2019-02-22T09:23:59.137Z,71.03
2019-02-22T09:24:59.122Z,70.17
2019-02-22T09:25:59.065Z,70.20
2019-02-22T09:26:59.075Z,71.00
2019-02-22T09:27:58.998Z,70.14
2019-02-22T09:28:59.664Z,70.87
2019-02-22T09:29:59.316Z,70.04
2019-02-22T09:30:58.897Z,69.17
2019-02-22T09:31:58.865Z,69.21
2019-02-22T09:32:58.841Z,69.17
2019-02-22T09:33:58.796Z,69.34
2019-02-22T09:34:58.787Z,70.07
2019-02-22T09:35:58.731Z,70.69
2019-02-22T09:36:58.792Z,69.62
2019-02-22T09:37:59.160Z,69.38
2019-02-22T09:38:59.160Z,68.65
2019-02-22T09:39:58.691Z,68.41
2019-02-22T09:40:58.565Z,67.93
2019-02-22T09:41:58.530Z,67.68
2019-02-22T09:42:58.549Z,69.13
2019-02-22T09:43:58.468Z,69.45
2019-02-22T09:44:58.465Z,69.52
2019-02-22T09:45:58.410Z,69.38
2019-02-22T09:46:58.371Z,67.90
2019-02-22T09:47:58.337Z,67.76
2019-02-22T09:48:59.161Z,66.83
2019-02-22T09:49:58.291Z,67.03
2019-02-22T09:50:58.249Z,66.93
2019-02-22T09:51:58.201Z,67.24
2019-02-22T09:52:58.220Z,67.27
2019-02-22T09:53:58.134Z,67.17
2019-02-22T09:54:58.133Z,67.30
2019-02-22T09:55:58.076Z,68.34
2019-02-22T09:56:58.137Z,67.76
2019-02-22T09:57:58.013Z,68.30
2019-02-22T09:58:57.974Z,69.13
2019-02-22T09:59:58.207Z,68.85
2019-02-22T10:00:57.907Z,68.02
2019-02-22T10:01:57.875Z,67.85
2019-02-22T10:02:58.586Z,66.91
2019-02-22T10:03:58.666Z,68.47
2019-02-22T10:04:57.799Z,67.05
2019-02-22T10:05:57.740Z,67.43
2019-02-22T10:06:57.711Z,67.02
2019-02-22T10:07:57.676Z,67.61
2019-02-22T10:08:57.651Z,67.43
2019-02-22T10:09:57.638Z,67.85
2019-02-22T10:10:57.579Z,66.60
2019-02-22T10:11:57.545Z,66.36
2019-02-22T10:12:57.504Z,64.90
2019-02-22T10:14:06.251Z,66.15
2019-02-22T10:14:57.465Z,67.50
2019-02-22T10:15:57.405Z,65.63
2019-02-22T10:16:57.371Z,66.39
2019-02-22T10:17:57.341Z,66.81
2019-02-22T10:18:57.368Z,66.81
2019-02-22T10:19:57.268Z,66.81
2019-02-22T10:20:57.263Z,66.71
2019-02-22T10:21:57.756Z,67.50
2019-02-22T10:22:57.164Z,66.25
2019-02-22T10:23:57.141Z,65.73
2019-02-22T10:24:57.664Z,65.19
2019-02-22T10:25:57.091Z,67.27
2019-02-22T10:26:57.030Z,67.24
2019-02-22T10:27:56.998Z,62.80
2019-02-22T10:28:56.960Z,64.75
2019-02-22T10:29:56.929Z,62.15
2019-02-22T10:30:56.914Z,61.01
2019-02-22T10:31:56.862Z,61.43
2019-02-22T10:32:56.825Z,60.91
2019-02-22T10:33:56.787Z,60.49
2019-02-22T10:34:56.758Z,59.56
2019-02-22T10:35:56.747Z,57.69
2019-02-22T10:36:56.736Z,57.17
2019-02-22T10:37:56.651Z,57.61
2019-02-22T10:38:56.642Z,58.75
2019-02-22T10:39:56.593Z,59.66
2019-02-22T10:40:56.571Z,57.40
2019-02-22T10:41:56.513Z,57.48
2019-02-22T10:42:56.480Z,56.86
2019-02-22T10:43:56.449Z,55.10
2019-02-22T10:44:56.413Z,56.73
2019-02-22T10:45:56.400Z,55.38
2019-02-22T10:46:56.348Z,55.07
2019-02-22T10:47:56.311Z,55.17
2019-02-22T10:48:56.301Z,54.65
2019-02-22T10:49:57.197Z,54.96
2019-02-22T10:50:59.070Z,55.07
2019-02-22T10:51:56.176Z,53.61
2019-02-22T10:53:02.211Z,52.79
2019-02-22T10:53:56.117Z,52.89
2019-02-22T10:54:56.670Z,51.13
2019-02-22T10:55:56.078Z,50.95
2019-02-22T10:56:56.001Z,51.44
2019-02-22T10:57:55.966Z,51.57
2019-02-22T10:58:55.935Z,51.86
2019-02-22T10:59:57.582Z,52.69
2019-02-22T11:00:55.905Z,51.65
2019-02-22T11:01:55.834Z,52.69
2019-02-22T11:02:55.800Z,52.27
2019-02-22T11:03:55.764Z,53.17
2019-02-22T11:04:55.729Z,51.83
2019-02-22T11:05:56.580Z,51.60
2019-02-22T11:06:55.661Z,51.00
2019-02-22T11:07:55.629Z,52.43
2019-02-22T11:08:55.593Z,49.73
2019-02-22T11:09:55.563Z,48.82
2019-02-22T11:10:55.547Z,48.93
2019-02-22T11:11:55.508Z,48.82
2019-02-22T11:12:55.459Z,48.20
2019-02-22T11:13:55.422Z,47.16
2019-02-22T11:14:55.394Z,48.51
2019-02-22T11:15:55.383Z,48.41
2019-02-22T11:16:55.318Z,47.37
2019-02-22T11:17:55.289Z,48.20
2019-02-22T11:18:55.288Z,48.72
2019-02-22T11:19:55.219Z,48.41
2019-02-22T11:20:55.207Z,48.08
2019-02-22T11:21:55.213Z,48.28
2019-02-22T11:22:55.681Z,48.41
2019-02-22T11:23:55.078Z,47.89
2019-02-22T11:24:55.050Z,48.82
2019-02-22T11:25:55.054Z,47.89
2019-02-22T11:26:54.981Z,47.16
2019-02-22T11:27:54.944Z,47.87
2019-02-22T11:28:54.916Z,47.58
2019-02-22T11:29:54.877Z,47.89
2019-02-22T11:30:55.674Z,46.64
2019-02-22T11:31:54.835Z,46.04
2019-02-22T11:32:54.777Z,47.08
2019-02-22T11:33:54.740Z,48.12
2019-02-22T11:34:55.678Z,48.43
2019-02-22T11:35:54.686Z,48.14
2019-02-22T11:36:54.677Z,47.91
2019-02-22T11:37:54.620Z,47.08
2019-02-22T11:38:54.590Z,46.88
2019-02-22T11:39:54.557Z,46.77
2019-02-22T11:40:56.095Z,47.47
2019-02-22T11:41:54.724Z,47.16
2019-02-22T11:42:54.505Z,46.64
2019-02-22T11:43:55.236Z,47.16
2019-02-22T11:44:54.382Z,44.89
2019-02-22T11:45:54.340Z,45.72
2019-02-22T11:48:25.855Z,45.72
2019-02-22T11:49:25.797Z,45.82
2019-02-22T11:50:25.763Z,43.54
2019-02-22T11:51:25.758Z,44.07
2019-02-22T11:52:25.722Z,44.70
2019-02-22T11:53:25.660Z,45.01
2019-02-22T11:54:25.626Z,44.38
2019-02-22T11:55:25.593Z,44.80
2019-02-22T11:56:25.580Z,44.70
2019-02-22T11:57:25.588Z,45.11
2019-02-22T11:58:25.495Z,43.85
2019-02-22T11:59:25.453Z,42.60
2019-02-22T12:00:25.421Z,43.85
2019-02-22T12:01:25.418Z,44.04
2019-02-22T12:02:25.353Z,43.02
2019-02-22T12:03:25.397Z,44.57
2019-02-22T12:04:25.290Z,45.92
2019-02-22T12:05:25.253Z,44.55
2019-02-22T12:06:25.260Z,44.34
2019-02-22T12:07:25.204Z,43.73
2019-02-22T12:08:25.153Z,43.83
2019-02-22T12:09:25.120Z,44.06
2019-02-22T12:10:25.086Z,44.57
2019-02-22T12:11:25.102Z,42.91
2019-02-22T12:12:25.033Z,44.55
2019-02-22T12:13:24.977Z,44.37
2019-02-22T12:14:25.492Z,44.96
2019-02-22T12:15:24.911Z,44.68
2019-02-22T12:16:24.878Z,44.65
2019-02-22T12:17:24.865Z,44.86
2019-02-22T12:18:24.809Z,45.40
2019-02-22T12:19:24.775Z,45.59
2019-02-22T12:20:24.738Z,45.79
2019-02-22T12:21:24.716Z,46.00
2019-02-22T12:22:25.072Z,46.00
2019-02-22T12:23:24.695Z,46.62
2019-02-22T12:24:24.606Z,45.59
2019-02-22T12:25:24.571Z,44.34
2019-02-22T12:26:24.557Z,44.47
2019-02-22T12:27:24.556Z,44.57
2019-02-22T12:28:24.481Z,45.30
2019-02-22T12:29:24.458Z,45.59
2019-02-22T12:30:25.728Z,44.34
2019-02-22T12:31:24.367Z,42.50
2019-02-22T12:32:24.356Z,42.91
2019-02-22T12:33:24.301Z,43.54
2019-02-22T12:34:24.266Z,42.81
2019-02-22T12:35:24.238Z,42.40
2019-02-22T12:36:24.196Z,43.74
2019-02-22T12:37:24.188Z,44.37
2019-02-22T12:38:24.130Z,44.65
2019-02-22T12:39:24.097Z,44.06
2019-02-22T12:40:24.072Z,44.16
2019-02-22T12:41:24.063Z,44.37
2019-02-22T12:42:24.019Z,44.16
2019-02-22T12:43:23.965Z,44.37
2019-02-22T12:44:24.485Z,44.37
2019-02-22T12:45:23.897Z,46.00
2019-02-22T12:46:23.867Z,45.48
2019-02-22T12:47:23.846Z,45.28
2019-02-22T12:48:23.789Z,44.55
2019-02-22T12:49:23.783Z,44.34
2019-02-22T12:50:24.484Z,44.76
2019-02-22T12:51:23.693Z,45.79
2019-02-22T12:52:23.681Z,44.34
2019-02-22T12:53:23.697Z,44.76
2019-02-22T12:54:23.586Z,45.09
2019-02-22T12:55:23.554Z,46.00